createdAt,value
2018-04-14T00:03:43.882Z,6.17
2018-04-14T00:08:46.400Z,5.60
2018-04-14T00:13:48.945Z,5.87
2018-04-14T00:18:51.662Z,6.03
2018-04-14T00:23:54.177Z,5.90
2018-04-14T00:28:56.673Z,6.17
2018-04-14T00:33:59.269Z,5.63
2018-04-14T00:39:01.773Z,5.43
2018-04-14T00:44:04.284Z,5.40
2018-04-14T00:49:06.789Z,6.17
2018-04-14T00:54:10.196Z,5.20
2018-04-14T00:59:12.788Z,5.67
2018-04-14T01:04:15.345Z,6.23
2018-04-14T01:09:17.861Z,5.27
2018-04-14T01:14:20.398Z,5.63
2018-04-14T01:19:22.894Z,5.50
2018-04-14T01:24:25.444Z,5.03
2018-04-14T01:29:27.959Z,5.70
2018-04-14T01:34:30.665Z,5.87
2018-04-14T01:39:34.023Z,5.33
2018-04-14T01:44:36.628Z,5.00
2018-04-14T01:49:39.119Z,5.03
2018-04-14T01:54:41.629Z,5.10
2018-04-14T01:59:44.886Z,4.93
2018-04-14T02:04:47.582Z,4.97
2018-04-14T02:09:50.314Z,5.27
2018-04-14T02:14:52.841Z,5.20
2018-04-14T02:19:55.362Z,5.07
2018-04-14T02:24:57.902Z,4.93
2018-04-14T02:30:00.401Z,6.00
2018-04-14T02:35:02.992Z,5.10
2018-04-14T02:40:05.702Z,5.20
2018-04-14T02:45:09.100Z,4.90
2018-04-14T02:50:11.890Z,5.17
2018-04-14T02:55:14.387Z,5.27
2018-04-14T03:00:16.890Z,5.00
2018-04-14T03:05:19.379Z,5.10
2018-04-14T03:10:21.955Z,5.10
2018-04-14T03:15:24.517Z,4.97
2018-04-14T03:20:27.067Z,4.87
2018-04-14T03:25:29.655Z,5.03
2018-04-14T03:30:32.227Z,5.20
2018-04-14T03:35:35.057Z,4.40
2018-04-14T03:40:37.785Z,5.50
2018-04-14T03:45:40.707Z,5.60
2018-04-14T03:50:44.129Z,4.07
2018-04-14T03:55:46.654Z,4.70
2018-04-14T04:00:49.188Z,4.50
2018-04-14T04:05:52.199Z,4.73
2018-04-14T04:10:55.313Z,4.03
2018-04-14T04:15:58.728Z,4.90
2018-04-14T04:21:13.243Z,4.60
2018-04-14T04:26:16.612Z,4.60
2018-04-14T04:31:20.863Z,4.03
2018-04-14T04:36:23.648Z,4.53
2018-04-14T04:41:26.264Z,4.93
2018-04-14T04:46:28.802Z,4.60
2018-04-14T04:51:31.292Z,4.40
2018-04-14T04:56:33.794Z,3.90
2018-04-14T05:01:36.318Z,4.30
2018-04-14T05:06:39.596Z,4.40
2018-04-14T05:11:42.344Z,4.00
2018-04-14T05:16:45.130Z,4.47
2018-04-14T05:21:47.777Z,4.10
2018-04-14T05:26:50.453Z,4.30
2018-04-14T05:31:52.979Z,4.23
2018-04-14T05:36:55.692Z,4.77
2018-04-14T05:41:58.192Z,4.17
2018-04-14T05:47:01.251Z,4.50
2018-04-14T05:52:03.877Z,4.60
2018-04-14T05:57:06.385Z,5.10
2018-04-14T06:02:09.057Z,5.10
2018-04-14T06:07:11.560Z,4.97
2018-04-14T06:12:14.285Z,5.13
2018-04-14T06:17:17.659Z,4.20
2018-04-14T06:22:20.183Z,4.43
2018-04-14T06:27:22.705Z,4.07
2018-04-14T06:32:25.189Z,4.50
2018-04-14T06:37:27.892Z,4.67
2018-04-14T06:42:30.537Z,4.50
2018-04-14T06:47:33.041Z,4.20
2018-04-14T06:52:36.479Z,4.67
2018-04-14T06:57:39.384Z,4.23
2018-04-14T07:02:42.883Z,4.13
2018-04-14T07:07:45.385Z,4.50
2018-04-14T07:12:47.894Z,4.97
2018-04-14T07:17:50.561Z,4.67
2018-04-14T07:22:53.092Z,3.90
2018-04-14T07:27:55.850Z,4.60
2018-04-14T07:32:58.597Z,4.23
2018-04-14T07:38:01.240Z,4.30
2018-04-14T07:43:03.765Z,4.60
2018-04-14T07:48:06.301Z,4.77
2018-04-14T07:53:09.011Z,4.07
2018-04-14T07:58:11.560Z,4.53
2018-04-14T08:03:14.115Z,3.83
2018-04-14T08:08:16.747Z,3.93
2018-04-14T08:13:20.127Z,4.60
2018-04-14T08:18:24.115Z,4.33
2018-04-14T08:23:27.567Z,4.13
2018-04-14T08:28:30.071Z,4.20
2018-04-14T08:33:32.599Z,4.60
2018-04-14T08:38:35.121Z,4.60
2018-04-14T08:43:38.224Z,3.60
2018-04-14T08:48:40.799Z,3.70
2018-04-14T08:53:43.310Z,4.67
2018-04-14T08:58:45.848Z,4.43
2018-04-14T09:03:48.543Z,3.93
2018-04-14T09:08:51.166Z,4.00
2018-04-14T09:13:53.813Z,4.23
2018-04-14T09:18:56.446Z,4.10
2018-04-14T09:23:59.402Z,4.37
2018-04-14T09:29:01.953Z,4.40
2018-04-14T09:34:04.609Z,4.60
2018-04-14T09:39:07.156Z,4.53
2018-04-14T09:44:09.663Z,5.43
2018-04-14T09:49:12.169Z,4.27
2018-04-14T09:54:20.566Z,3.80
2018-04-14T09:59:23.872Z,4.50
2018-04-14T10:04:27.291Z,4.67
2018-04-14T10:09:29.819Z,3.70
2018-04-14T10:14:32.391Z,4.70
2018-04-14T10:19:34.935Z,4.33
2018-04-14T10:24:37.745Z,4.70
2018-04-14T10:29:40.241Z,4.43
2018-04-14T10:34:42.734Z,4.40
2018-04-14T10:39:45.224Z,4.10
2018-04-14T10:44:47.750Z,4.00
2018-04-14T10:49:51.018Z,4.00
2018-04-14T10:54:53.517Z,4.10
2018-04-14T10:59:56.008Z,4.73
2018-04-14T11:04:59.822Z,4.30
2018-04-14T11:10:02.373Z,4.70
2018-04-14T11:15:06.441Z,4.50
2018-04-14T11:20:09.604Z,4.67
2018-04-14T11:25:13.888Z,4.20
2018-04-14T11:30:16.446Z,4.40
2018-04-14T11:35:19.853Z,4.03
2018-04-14T11:40:23.771Z,3.87
2018-04-14T11:45:26.273Z,4.53
2018-04-14T11:50:28.791Z,3.90
2018-04-14T11:55:31.398Z,4.33
2018-04-14T12:00:34.004Z,4.20
2018-04-14T12:05:36.571Z,4.30
2018-04-14T12:10:39.123Z,4.50
2018-04-14T12:15:41.834Z,4.17
2018-04-14T12:20:44.557Z,4.20
2018-04-14T12:25:47.070Z,4.40
2018-04-14T12:30:49.670Z,4.67
2018-04-14T12:35:52.985Z,5.03
2018-04-14T12:40:55.840Z,4.20
2018-04-14T12:45:58.356Z,4.27
2018-04-14T12:51:00.861Z,4.40
2018-04-14T12:56:03.369Z,4.00
2018-04-14T13:01:06.146Z,4.67
2018-04-14T13:06:08.646Z,4.00
2018-04-14T13:11:11.416Z,4.10
2018-04-14T13:16:14.683Z,3.57
2018-04-14T13:21:17.322Z,3.87
2018-04-14T13:26:19.886Z,4.10
2018-04-14T13:31:23.090Z,4.63
2018-04-14T13:36:25.627Z,4.03
2018-04-14T13:41:28.897Z,4.17
2018-04-14T13:46:31.449Z,4.07
2018-04-14T13:51:33.960Z,4.27
2018-04-14T13:56:36.803Z,4.33
2018-04-14T14:01:39.331Z,3.70
2018-04-14T14:06:41.850Z,4.70
2018-04-14T14:11:44.369Z,4.33
2018-04-14T14:16:46.959Z,4.07
2018-04-14T14:21:49.551Z,4.43
2018-04-14T14:26:52.121Z,4.50
2018-04-14T14:31:54.638Z,4.30
2018-04-14T14:36:57.216Z,5.10
2018-04-14T14:42:00.982Z,5.17
2018-04-14T14:47:04.229Z,4.77
2018-04-14T14:52:06.874Z,4.93
2018-04-14T14:57:09.842Z,4.33
2018-04-14T15:02:12.367Z,4.40
2018-04-14T15:07:14.943Z,5.37
2018-04-14T15:12:17.446Z,4.67
2018-04-14T15:17:20.425Z,4.23
2018-04-14T15:22:22.961Z,4.70
2018-04-14T15:27:25.557Z,4.50
2018-04-14T15:32:28.873Z,4.40
2018-04-14T15:37:31.603Z,4.27
2018-04-14T15:42:34.203Z,5.33
2018-04-14T15:47:36.981Z,4.93
2018-04-14T15:52:39.523Z,4.30
2018-04-14T15:57:43.169Z,4.53
2018-04-14T16:02:45.850Z,4.80
2018-04-14T16:07:48.445Z,4.57
2018-04-14T16:12:51.090Z,4.20
2018-04-14T16:17:53.662Z,4.03
2018-04-14T16:22:56.185Z,4.60
2018-04-14T16:28:00.243Z,4.27
2018-04-14T16:33:02.771Z,4.10
2018-04-14T16:38:05.326Z,4.50
2018-04-14T16:43:07.937Z,4.47
2018-04-14T16:48:10.452Z,5.10
2018-04-14T16:53:12.979Z,3.87
2018-04-14T16:58:17.304Z,4.50
2018-04-14T17:03:20.065Z,4.80
2018-04-14T17:08:22.783Z,4.27
2018-04-14T17:13:25.730Z,4.57
2018-04-14T17:18:28.747Z,4.50
2018-04-14T17:23:31.272Z,4.40
2018-04-14T17:28:33.879Z,4.70
2018-04-14T17:33:36.433Z,4.60
2018-04-14T17:38:38.962Z,5.07
2018-04-14T17:43:41.888Z,4.63
2018-04-14T17:48:44.396Z,4.73
2018-04-14T17:53:46.908Z,4.67
2018-04-14T17:58:49.524Z,4.33
2018-04-14T18:03:53.267Z,4.60
2018-04-14T18:08:55.873Z,4.83
2018-04-14T18:13:58.412Z,5.10
2018-04-14T18:19:01.097Z,5.40
2018-04-14T18:24:03.632Z,5.40
2018-04-14T18:29:06.118Z,5.07
2018-04-14T18:34:08.724Z,5.50
2018-04-14T18:39:11.364Z,5.40
2018-04-14T18:44:14.962Z,6.03
2018-04-14T18:49:17.521Z,5.83
2018-04-14T18:54:20.036Z,6.33
2018-04-14T18:59:22.578Z,5.40
2018-04-14T19:04:25.910Z,6.17
2018-04-14T19:09:28.448Z,7.13
2018-04-14T19:14:31.517Z,6.20
2018-04-14T19:19:34.099Z,6.67
2018-04-14T19:24:36.692Z,6.53
2018-04-14T19:29:39.236Z,7.10
2018-04-14T19:34:41.851Z,6.40
2018-04-14T19:39:44.573Z,6.70
2018-04-14T19:44:47.094Z,6.70
2018-04-14T19:49:49.750Z,6.73
2018-04-14T19:54:52.665Z,8.40
2018-04-14T19:59:56.053Z,7.67
2018-04-14T20:04:58.564Z,8.03
2018-04-14T20:10:02.313Z,8.07
2018-04-14T20:15:04.845Z,8.57
2018-04-14T20:20:07.347Z,7.57
2018-04-14T20:25:10.697Z,7.70
2018-04-14T20:30:13.380Z,7.50
2018-04-14T20:35:15.917Z,8.30
2018-04-14T20:40:18.607Z,8.10
2018-04-14T20:45:21.311Z,7.80
2018-04-14T20:50:23.832Z,8.60
2018-04-14T20:55:26.573Z,7.57
2018-04-14T21:00:29.617Z,8.63
2018-04-14T21:05:32.184Z,9.00
2018-04-14T21:10:35.168Z,8.90
2018-04-14T21:15:38.531Z,7.90
2018-04-14T21:20:41.066Z,8.70
2018-04-14T21:25:44.355Z,8.37
2018-04-14T21:30:46.883Z,8.93
2018-04-14T21:35:50.402Z,8.80
2018-04-14T21:40:53.115Z,8.60
2018-04-14T21:45:55.782Z,8.60
2018-04-14T21:50:58.333Z,9.37
2018-04-14T21:56:00.858Z,8.60
2018-04-14T22:01:03.598Z,8.60
2018-04-14T22:06:06.439Z,9.20
2018-04-14T22:11:09.007Z,9.17
2018-04-14T22:16:11.579Z,9.00
2018-04-14T22:21:14.627Z,8.90
2018-04-14T22:26:17.470Z,9.30
2018-04-14T22:31:20.019Z,9.23
2018-04-14T22:36:22.551Z,9.40
2018-04-14T22:41:25.852Z,8.83
2018-04-14T22:46:28.515Z,9.10
2018-04-14T22:51:31.187Z,10.20
2018-04-14T22:56:33.772Z,8.90
2018-04-14T23:01:36.288Z,9.20
2018-04-14T23:06:38.874Z,9.40
2018-04-14T23:11:41.459Z,9.57
2018-04-14T23:16:44.015Z,9.47
2018-04-14T23:21:46.590Z,10.73
2018-04-14T23:26:49.089Z,10.00
2018-04-14T23:31:51.634Z,9.97
2018-04-14T23:36:54.969Z,9.93
2018-04-14T23:41:57.855Z,10.33
2018-04-14T23:47:00.399Z,10.27
2018-04-14T23:52:02.946Z,10.37
2018-04-14T23:57:05.498Z,10.17
